sensor_id;sensor_type;location;lat;lon;timestamp;pressure;altitude;pressure_sealevel;temperature;humidity
12475;BME280;6302;42.624;23.334;2022-08-21T00:02:26;92836.84;;;18.92;100.00
12475;BME280;6302;42.624;23.334;2022-08-21T00:04:54;92831.75;;;18.94;100.00
12475;BME280;6302;42.624;23.334;2022-08-21T00:07:22;92821.00;;;18.94;100.00
12475;BME280;6302;42.624;23.334;2022-08-21T00:09:49;92824.72;;;18.96;100.00
12475;BME280;6302;42.624;23.334;2022-08-21T00:12:17;92820.88;;;18.97;100.00
12475;BME280;6302;42.624;23.334;2022-08-21T00:14:43;92814.47;;;18.95;100.00
12475;BME280;6302;42.624;23.334;2022-08-21T00:17:10;92815.84;;;18.90;100.00
12475;BME280;6302;42.624;23.334;2022-08-21T00:19:37;92812.72;;;18.82;100.00
12475;BME280;6302;42.624;23.334;2022-08-21T00:22:04;92805.91;;;18.72;100.00
12475;BME280;6302;42.624;23.334;2022-08-21T00:24:32;92809.78;;;18.71;100.00
12475;BME280;6302;42.624;23.334;2022-08-21T00:26:59;92816.09;;;18.68;100.00
12475;BME280;6302;42.624;23.334;2022-08-21T00:29:26;92802.22;;;18.70;100.00
12475;BME280;6302;42.624;23.334;2022-08-21T00:31:53;92808.31;;;18.70;100.00
12475;BME280;6302;42.624;23.334;2022-08-21T00:34:20;92803.25;;;18.72;100.00
12475;BME280;6302;42.624;23.334;2022-08-21T00:36:47;92810.38;;;18.75;100.00
12475;BME280;6302;42.624;23.334;2022-08-21T00:39:14;92805.16;;;18.81;100.00
12475;BME280;6302;42.624;23.334;2022-08-21T00:41:42;92809.16;;;18.86;100.00
12475;BME280;6302;42.624;23.334;2022-08-21T00:44:11;92813.91;;;18.91;100.00
12475;BME280;6302;42.624;23.334;2022-08-21T00:46:39;92812.69;;;18.92;100.00
12475;BME280;6302;42.624;23.334;2022-08-21T00:49:07;92812.97;;;18.94;100.00
12475;BME280;6302;42.624;23.334;2022-08-21T00:51:38;92810.75;;;18.92;100.00
12475;BME280;6302;42.624;23.334;2022-08-21T00:54:06;92815.84;;;18.90;100.00
12475;BME280;6302;42.624;23.334;2022-08-21T00:56:33;92811.97;;;18.91;100.00
12475;BME280;6302;42.624;23.334;2022-08-21T00:59:03;92809.09;;;18.95;100.00
12475;BME280;6302;42.624;23.334;2022-08-21T01:01:32;92812.06;;;18.97;100.00
12475;BME280;6302;42.624;23.334;2022-08-21T01:03:59;92809.97;;;19.01;100.00
12475;BME280;6302;42.624;23.334;2022-08-21T01:06:26;92799.50;;;19.03;100.00
12475;BME280;6302;42.624;23.334;2022-08-21T01:08:53;92798.59;;;19.06;100.00
12475;BME280;6302;42.624;23.334;2022-08-21T01:11:20;92796.47;;;19.10;100.00
12475;BME280;6302;42.624;23.334;2022-08-21T01:13:47;92796.75;;;19.12;100.00
12475;BME280;6302;42.624;23.334;2022-08-21T01:16:18;92791.38;;;19.12;100.00
12475;BME280;6302;42.624;23.334;2022-08-21T01:18:47;92794.06;;;19.12;100.00
12475;BME280;6302;42.624;23.334;2022-08-21T01:21:17;92792.88;;;19.13;100.00
12475;BME280;6302;42.624;23.334;2022-08-21T01:23:46;92780.91;;;19.14;100.00
12475;BME280;6302;42.624;23.334;2022-08-21T01:26:16;92782.41;;;19.15;100.00
12475;BME280;6302;42.624;23.334;2022-08-21T01:28:50;92791.66;;;19.14;100.00
12475;BME280;6302;42.624;23.334;2022-08-21T01:31:23;92786.47;;;19.10;100.00
12475;BME280;6302;42.624;23.334;2022-08-21T01:33:51;92788.41;;;19.10;100.00
12475;BME280;6302;42.624;23.334;2022-08-21T01:36:19;92796.75;;;19.12;100.00
12475;BME280;6302;42.624;23.334;2022-08-21T01:38:46;92782.03;;;19.07;100.00
12475;BME280;6302;42.624;23.334;2022-08-21T01:41:13;92796.19;;;19.08;100.00
12475;BME280;6302;42.624;23.334;2022-08-21T01:43:41;92795.91;;;19.06;100.00
12475;BME280;6302;42.624;23.334;2022-08-21T01:46:09;92787.56;;;19.04;100.00
12475;BME280;6302;42.624;23.334;2022-08-21T01:48:36;92788.31;;;19.04;100.00
12475;BME280;6302;42.624;23.334;2022-08-21T01:51:05;92792.19;;;19.03;100.00
12475;BME280;6302;42.624;23.334;2022-08-21T01:53:34;92794.88;;;19.03;100.00
12475;BME280;6302;42.624;23.334;2022-08-21T01:56:03;92792.91;;;19.04;100.00
12475;BME280;6302;42.624;23.334;2022-08-21T01:58:31;92792.91;;;19.04;100.00
12475;BME280;6302;42.624;23.334;2022-08-21T02:00:59;92794.41;;;19.05;100.00
12475;BME280;6302;42.624;23.334;2022-08-21T02:03:27;92795.44;;;19.07;100.00
12475;BME280;6302;42.624;23.334;2022-08-21T02:05:54;92794.41;;;19.05;100.00
12475;BME280;6302;42.624;23.334;2022-08-21T02:08:21;92790.22;;;19.04;100.00
12475;BME280;6302;42.624;23.334;2022-08-21T02:10:50;92793.09;;;19.00;100.00
12475;BME280;6302;42.624;23.334;2022-08-21T02:13:18;92800.13;;;18.98;100.00
12475;BME280;6302;42.624;23.334;2022-08-21T02:15:45;92803.25;;;18.96;100.00
12475;BME280;6302;42.624;23.334;2022-08-21T02:18:12;92803.72;;;18.95;100.00
12475;BME280;6302;42.624;23.334;2022-08-21T02:20:41;92799.53;;;18.94;100.00
12475;BME280;6302;42.624;23.334;2022-08-21T02:23:10;92794.16;;;18.94;100.00
12475;BME280;6302;42.624;23.334;2022-08-21T02:25:37;92805.84;;;18.91;100.00
12475;BME280;6302;42.624;23.334;2022-08-21T02:28:08;92806.47;;;18.86;100.00
12475;BME280;6302;42.624;23.334;2022-08-21T02:30:39;92813.19;;;18.81;100.00
12475;BME280;6302;42.624;23.334;2022-08-21T02:33:07;92817.81;;;18.80;100.00
12475;BME280;6302;42.624;23.334;2022-08-21T02:35:35;92811.69;;;18.80;100.00
12475;BME280;6302;42.624;23.334;2022-08-21T02:38:04;92820.78;;;18.82;100.00
12475;BME280;6302;42.624;23.334;2022-08-21T02:40:35;92815.41;;;18.82;100.00
12475;BME280;6302;42.624;23.334;2022-08-21T02:43:04;92815.88;;;18.81;100.00
12475;BME280;6302;42.624;23.334;2022-08-21T02:45:32;92810.94;;;18.79;100.00
12475;BME280;6302;42.624;23.334;2022-08-21T02:48:03;92818.56;;;18.81;100.00
12475;BME280;6302;42.624;23.334;2022-08-21T02:50:32;92814.38;;;18.80;100.00
12475;BME280;6302;42.624;23.334;2022-08-21T02:53:00;92808.00;;;18.77;100.00
12475;BME280;6302;42.624;23.334;2022-08-21T02:55:29;92808.75;;;18.78;100.00
12475;BME280;6302;42.624;23.334;2022-08-21T02:57:58;92808.88;;;18.74;100.00
12475;BME280;6302;42.624;23.334;2022-08-21T03:00:27;92816.66;;;18.72;100.00
12475;BME280;6302;42.624;23.334;2022-08-21T03:02:56;92819.91;;;18.76;100.00
12475;BME280;6302;42.624;23.334;2022-08-21T03:05:25;92816.03;;;18.77;100.00
12475;BME280;6302;42.624;23.334;2022-08-21T03:07:53;92818.44;;;18.75;100.00
12475;BME280;6302;42.624;23.334;2022-08-21T03:10:21;92818.88;;;18.74;100.00
12475;BME280;6302;42.624;23.334;2022-08-21T03:12:48;92815.28;;;18.77;100.00
12475;BME280;6302;42.624;23.334;2022-08-21T03:15:17;92813.63;;;18.79;100.00
12475;BME280;6302;42.624;23.334;2022-08-21T03:17:45;92807.09;;;18.80;100.00
12475;BME280;6302;42.624;23.334;2022-08-21T03:20:15;92810.53;;;18.81;100.00
12475;BME280;6302;42.624;23.334;2022-08-21T03:22:42;92804.13;;;18.78;100.00
12475;BME280;6302;42.624;23.334;2022-08-21T03:25:09;92816.03;;;18.77;100.00
12475;BME280;6302;42.624;23.334;2022-08-21T03:27:37;92806.81;;;18.78;100.00
12475;BME280;6302;42.624;23.334;2022-08-21T03:30:05;92804.28;;;18.75;100.00
12475;BME280;6302;42.624;23.334;2022-08-21T03:32:33;92796.38;;;18.71;100.00
12475;BME280;6302;42.624;23.334;2022-08-21T03:35:00;92811.28;;;18.72;100.00
12475;BME280;6302;42.624;23.334;2022-08-21T03:37:29;92801.59;;;18.75;100.00
12475;BME280;6302;42.624;23.334;2022-08-21T03:39:57;92807.69;;;18.75;100.00
12475;BME280;6302;42.624;23.334;2022-08-21T03:42:23;92808.44;;;18.76;100.00
12475;BME280;6302;42.624;23.334;2022-08-21T03:44:50;92801.13;;;18.76;100.00
12475;BME280;6302;42.624;23.334;2022-08-21T03:47:17;92793.38;;;18.78;100.00
12475;BME280;6302;42.624;23.334;2022-08-21T03:49:44;92794.09;;;18.79;100.00
12475;BME280;6302;42.624;23.334;2022-08-21T03:52:11;92801.13;;;18.76;100.00
12475;BME280;6302;42.624;23.334;2022-08-21T03:54:39;92803.81;;;18.76;100.00
12475;BME280;6302;42.624;23.334;2022-08-21T03:57:07;92814.84;;;18.78;100.00
12475;BME280;6302;42.624;23.334;2022-08-21T03:59:34;92816.81;;;18.69;100.00
12475;BME280;6302;42.624;23.334;2022-08-21T04:02:03;92814.03;;;18.63;100.00
12475;BME280;6302;42.624;23.334;2022-08-21T04:04:31;92822.34;;;18.65;100.00
12475;BME280;6302;42.624;23.334;2022-08-21T04:06:58;92826.53;;;18.66;100.00
12475;BME280;6302;42.624;23.334;2022-08-21T04:09:26;92832.34;;;18.65;100.00
12475;BME280;6302;42.624;23.334;2022-08-21T04:11:54;92827.44;;;18.63;100.00
12475;BME280;6302;42.624;23.334;2022-08-21T04:14:21;92823.53;;;18.64;100.00
12475;BME280;6302;42.624;23.334;2022-08-21T04:16:48;92823.53;;;18.64;100.00
12475;BME280;6302;42.624;23.334;2022-08-21T04:19:15;92824.00;;;18.63;100.00
12475;BME280;6302;42.624;23.334;2022-08-21T04:21:42;92825.03;;;18.65;100.00
12475;BME280;6302;42.624;23.334;2022-08-21T04:24:09;92820.44;;;18.66;100.00
12475;BME280;6302;42.624;23.334;2022-08-21T04:26:37;92793.03;;;18.53;100.00
12475;BME280;6302;42.624;23.334;2022-08-21T04:29:06;92811.91;;;18.67;100.00
12475;BME280;6302;42.624;23.334;2022-08-21T04:31:33;92811.44;;;18.69;100.00
12475;BME280;6302;42.624;23.334;2022-08-21T04:34:00;92810.25;;;18.70;100.00
12475;BME280;6302;42.624;23.334;2022-08-21T04:36:26;92818.03;;;18.68;100.00
12475;BME280;6302;42.624;23.334;2022-08-21T04:38:53;92813.69;;;18.70;100.00
12475;BME280;6302;42.624;23.334;2022-08-21T04:41:20;92809.91;;;18.77;100.00
12475;BME280;6302;42.624;23.334;2022-08-21T04:43:47;92812.16;;;18.78;100.00
12475;BME280;6302;42.624;23.334;2022-08-21T04:46:16;92807.41;;;18.73;100.00
12475;BME280;6302;42.624;23.334;2022-08-21T04:48:44;92802.22;;;18.70;100.00
12475;BME280;6302;42.624;23.334;2022-08-21T04:51:14;92802.66;;;18.68;100.00
12475;BME280;6302;42.624;23.334;2022-08-21T04:53:45;92806.94;;;18.75;100.00
12475;BME280;6302;42.624;23.334;2022-08-21T04:56:19;92810.06;;;18.82;100.00
12475;BME280;6302;42.624;23.334;2022-08-21T04:58:47;92813.63;;;18.89;100.00
12475;BME280;6302;42.624;23.334;2022-08-21T05:01:19;92811.97;;;18.91;100.00
12475;BME280;6302;42.624;23.334;2022-08-21T05:03:49;92811.84;;;18.86;100.00
12475;BME280;6302;42.624;23.334;2022-08-21T05:06:17;92816.25;;;18.98;100.00
12475;BME280;6302;42.624;23.334;2022-08-21T05:08:45;92822.59;;;19.09;100.00
12475;BME280;6302;42.624;23.334;2022-08-21T05:11:14;92822.66;;;19.24;100.00
12475;BME280;6302;42.624;23.334;2022-08-21T05:13:42;92814.38;;;19.36;100.00
12475;BME280;6302;42.624;23.334;2022-08-21T05:16:09;92813.59;;;19.36;100.00
12475;BME280;6302;42.624;23.334;2022-08-21T05:18:37;92803.88;;;19.48;100.00
12475;BME280;6302;42.624;23.334;2022-08-21T05:21:04;92812.75;;;19.54;100.00
12475;BME280;6302;42.624;23.334;2022-08-21T05:23:31;92826.47;;;19.56;100.00
12475;BME280;6302;42.624;23.334;2022-08-21T05:25:58;92823.88;;;19.46;100.00
12475;BME280;6302;42.624;23.334;2022-08-21T05:28:25;92821.34;;;19.43;100.00
12475;BME280;6302;42.624;23.334;2022-08-21T05:30:52;92817.19;;;19.42;100.00
12475;BME280;6302;42.624;23.334;2022-08-21T05:33:19;92816.72;;;19.43;100.00
12475;BME280;6302;42.624;23.334;2022-08-21T05:35:49;92818.34;;;19.50;100.00
12475;BME280;6302;42.624;23.334;2022-08-21T05:38:16;92818.81;;;19.63;100.00
12475;BME280;6302;42.624;23.334;2022-08-21T05:40:43;92816.63;;;19.76;100.00
12475;BME280;6302;42.624;23.334;2022-08-21T05:43:10;92819.16;;;19.80;100.00
12475;BME280;6302;42.624;23.334;2022-08-21T05:45:37;92818.94;;;19.83;100.00
12475;BME280;6302;42.624;23.334;2022-08-21T05:48:07;92809.69;;;19.84;100.00
12475;BME280;6302;42.624;23.334;2022-08-21T05:50:34;92810.72;;;19.87;100.00
12475;BME280;6302;42.624;23.334;2022-08-21T05:53:04;92793.34;;;19.88;100.00
12475;BME280;6302;42.624;23.334;2022-08-21T05:55:31;92803.03;;;19.94;100.00
12475;BME280;6302;42.624;23.334;2022-08-21T05:57:58;92804.13;;;19.88;100.00
12475;BME280;6302;42.624;23.334;2022-08-21T06:00:25;92805.22;;;19.81;100.00
12475;BME280;6302;42.624;23.334;2022-08-21T06:02:52;92804.31;;;19.84;100.00
12475;BME280;6302;42.624;23.334;2022-08-21T06:05:19;92818.13;;;19.92;100.00
12475;BME280;6302;42.624;23.334;2022-08-21T06:07:46;92802.66;;;20.01;100.00
12475;BME280;6302;42.624;23.334;2022-08-21T06:10:14;92809.16;;;20.09;100.00
12475;BME280;6302;42.624;23.334;2022-08-21T06:12:41;92804.13;;;20.17;100.00
12475;BME280;6302;42.624;23.334;2022-08-21T06:15:08;92806.38;;;20.19;100.00
12475;BME280;6302;42.624;23.334;2022-08-21T06:17:35;92815.28;;;20.25;100.00
12475;BME280;6302;42.624;23.334;2022-08-21T06:20:03;92810.66;;;20.40;100.00
12475;BME280;6302;42.624;23.334;2022-08-21T06:22:30;92806.88;;;20.32;100.00
12475;BME280;6302;42.624;23.334;2022-08-21T06:24:57;92803.63;;;20.28;100.00
12475;BME280;6302;42.624;23.334;2022-08-21T06:27:26;92801.50;;;20.32;100.00
12475;BME280;6302;42.624;23.334;2022-08-21T06:29:52;92804.63;;;20.45;100.00
12475;BME280;6302;42.624;23.334;2022-08-21T06:32:21;92806.66;;;20.50;100.00
12475;BME280;6302;42.624;23.334;2022-08-21T06:34:48;92804.53;;;20.54;100.00
12475;BME280;6302;42.624;23.334;2022-08-21T06:37:15;92807.50;;;20.56;100.00
12475;BME280;6302;42.624;23.334;2022-08-21T06:39:42;92816.78;;;20.55;100.00
12475;BME280;6302;42.624;23.334;2022-08-21T06:42:13;92811.00;;;20.62;100.00
12475;BME280;6302;42.624;23.334;2022-08-21T06:44:42;92817.50;;;20.70;100.00
12475;BME280;6302;42.624;23.334;2022-08-21T06:47:08;92814.50;;;20.83;100.00
12475;BME280;6302;42.624;23.334;2022-08-21T06:49:35;92820.25;;;20.90;100.00
12475;BME280;6302;42.624;23.334;2022-08-21T06:52:02;92815.22;;;20.98;100.00
12475;BME280;6302;42.624;23.334;2022-08-21T06:54:29;92824.69;;;20.93;100.00
12475;BME280;6302;42.624;23.334;2022-08-21T06:56:56;92834.72;;;21.07;100.00
12475;BME280;6302;42.624;23.334;2022-08-21T06:59:23;92828.59;;;20.92;100.00
12475;BME280;6302;42.624;23.334;2022-08-21T07:01:52;92827.09;;;20.91;100.00
12475;BME280;6302;42.624;23.334;2022-08-21T07:04:18;92824.69;;;20.93;100.00
12475;BME280;6302;42.624;23.334;2022-08-21T07:06:46;92821.34;;;20.98;100.00
12475;BME280;6302;42.624;23.334;2022-08-21T07:09:12;92822.34;;;21.15;100.00
12475;BME280;6302;42.624;23.334;2022-08-21T07:11:40;92828.28;;;21.19;100.00
12475;BME280;6302;42.624;23.334;2022-08-21T07:14:07;92829.72;;;21.35;100.00
12475;BME280;6302;42.624;23.334;2022-08-21T07:16:34;92832.75;;;21.43;100.00
12475;BME280;6302;42.624;23.334;2022-08-21T07:19:02;92836.13;;;21.37;100.00
12475;BME280;6302;42.624;23.334;2022-08-21T07:21:29;92828.72;;;21.53;100.00
12475;BME280;6302;42.624;23.334;2022-08-21T07:23:56;92824.84;;;21.59;100.00
12475;BME280;6302;42.624;23.334;2022-08-21T07:26:23;92824.38;;;21.61;100.00
12475;BME280;6302;42.624;23.334;2022-08-21T07:28:51;92821.22;;;21.62;100.00
12475;BME280;6302;42.624;23.334;2022-08-21T07:31:22;92820.22;;;21.60;100.00
12475;BME280;6302;42.624;23.334;2022-08-21T07:33:49;92821.00;;;21.66;100.00
12475;BME280;6302;42.624;23.334;2022-08-21T07:36:18;92813.72;;;21.52;100.00
12475;BME280;6302;42.624;23.334;2022-08-21T07:38:45;92808.09;;;21.75;100.00
12475;BME280;6302;42.624;23.334;2022-08-21T07:41:15;92812.56;;;21.98;100.00
12475;BME280;6302;42.624;23.334;2022-08-21T07:43:42;92807.56;;;22.17;100.00
12475;BME280;6302;42.624;23.334;2022-08-21T07:46:09;92805.38;;;22.41;100.00
12475;BME280;6302;42.624;23.334;2022-08-21T07:48:37;92805.13;;;22.45;100.00
12475;BME280;6302;42.624;23.334;2022-08-21T07:51:06;92806.88;;;22.48;100.00
12475;BME280;6302;42.624;23.334;2022-08-21T07:53:35;92807.38;;;22.46;100.00
12475;BME280;6302;42.624;23.334;2022-08-21T07:56:03;92807.53;;;22.37;100.00
12475;BME280;6302;42.624;23.334;2022-08-21T07:58:30;92803.69;;;22.18;100.00
12475;BME280;6302;42.624;23.334;2022-08-21T08:00:57;92802.50;;;22.25;100.00
12475;BME280;6302;42.624;23.334;2022-08-21T08:03:25;92806.94;;;22.28;100.00
12475;BME280;6302;42.624;23.334;2022-08-21T08:05:52;92810.19;;;22.32;100.00
12475;BME280;6302;42.624;23.334;2022-08-21T08:08:19;92814.88;;;22.37;100.00
12475;BME280;6302;42.624;23.334;2022-08-21T08:10:47;92806.19;;;22.27;100.00
12475;BME280;6302;42.624;23.334;2022-08-21T08:13:14;92817.22;;;22.24;100.00
12475;BME280;6302;42.624;23.334;2022-08-21T08:15:41;92811.59;;;22.27;100.00
12475;BME280;6302;42.624;23.334;2022-08-21T08:18:08;92815.72;;;22.48;100.00
12475;BME280;6302;42.624;23.334;2022-08-21T08:20:35;92817.94;;;22.76;100.00
12475;BME280;6302;42.624;23.334;2022-08-21T08:23:03;92818.19;;;22.78;100.00
12475;BME280;6302;42.624;23.334;2022-08-21T08:25:30;92814.34;;;22.90;100.00
12475;BME280;6302;42.624;23.334;2022-08-21T08:27:58;92813.94;;;23.02;100.00
12475;BME280;6302;42.624;23.334;2022-08-21T08:30:25;92809.72;;;22.96;100.00
12475;BME280;6302;42.624;23.334;2022-08-21T08:32:51;92815.28;;;22.55;100.00
12475;BME280;6302;42.624;23.334;2022-08-21T08:35:18;92819.19;;;22.23;100.00
12475;BME280;6302;42.624;23.334;2022-08-21T08:37:45;92821.50;;;22.10;100.00
12475;BME280;6302;42.624;23.334;2022-08-21T08:40:14;92831.97;;;22.02;100.00
12475;BME280;6302;42.624;23.334;2022-08-21T08:42:46;92824.63;;;22.03;100.00
12475;BME280;6302;42.624;23.334;2022-08-21T08:45:17;92827.81;;;22.01;100.00
12475;BME280;6302;42.624;23.334;2022-08-21T08:47:47;92821.75;;;22.12;100.00
12475;BME280;6302;42.624;23.334;2022-08-21T08:50:18;92812.09;;;22.26;100.00
12475;BME280;6302;42.624;23.334;2022-08-21T08:52:49;92811.38;;;22.56;100.00
12475;BME280;6302;42.624;23.334;2022-08-21T08:55:22;92802.31;;;22.91;100.00
12475;BME280;6302;42.624;23.334;2022-08-21T08:57:51;92802.03;;;22.83;100.00
12475;BME280;6302;42.624;23.334;2022-08-21T09:00:22;92805.28;;;22.93;100.00
12475;BME280;6302;42.624;23.334;2022-08-21T09:02:53;92801.41;;;23.05;100.00
12475;BME280;6302;42.624;23.334;2022-08-21T09:05:22;92795.31;;;23.10;100.00
12475;BME280;6302;42.624;23.334;2022-08-21T09:08:03;92808.59;;;23.13;100.00
12475;BME280;6302;42.624;23.334;2022-08-21T09:10:44;92805.69;;;23.22;100.00
12475;BME280;6302;42.624;23.334;2022-08-21T09:13:21;92806.00;;;23.30;100.00
12475;BME280;6302;42.624;23.334;2022-08-21T09:15:58;92794.06;;;23.53;100.00
12475;BME280;6302;42.624;23.334;2022-08-21T09:18:36;92791.63;;;23.61;100.00
12475;BME280;6302;42.624;23.334;2022-08-21T09:21:16;92785.53;;;23.71;100.00
12475;BME280;6302;42.624;23.334;2022-08-21T09:24:00;92783.38;;;23.92;100.00
12475;BME280;6302;42.624;23.334;2022-08-21T09:26:36;92775.25;;;23.98;100.00
12475;BME280;6302;42.624;23.334;2022-08-21T09:29:10;92778.72;;;24.04;100.00
12475;BME280;6302;42.624;23.334;2022-08-21T09:31:39;92775.31;;;24.20;100.00
12475;BME280;6302;42.624;23.334;2022-08-21T09:34:09;92777.81;;;24.40;100.00
12475;BME280;6302;42.624;23.334;2022-08-21T09:36:39;92782.75;;;24.58;100.00
12475;BME280;6302;42.624;23.334;2022-08-21T09:39:08;92781.03;;;24.44;100.00
12475;BME280;6302;42.624;23.334;2022-08-21T09:41:36;92778.53;;;24.18;100.00
12475;BME280;6302;42.624;23.334;2022-08-21T09:44:05;92779.19;;;23.91;100.00
12475;BME280;6302;42.624;23.334;2022-08-21T09:46:33;92776.22;;;23.83;100.00
12475;BME280;6302;42.624;23.334;2022-08-21T09:49:03;92772.28;;;23.90;100.00
12475;BME280;6302;42.624;23.334;2022-08-21T09:51:32;92778.72;;;23.98;100.00
12475;BME280;6302;42.624;23.334;2022-08-21T09:54:14;92775.19;;;23.75;100.00
12475;BME280;6302;42.624;23.334;2022-08-21T09:56:52;92762.59;;;23.56;100.00
12475;BME280;6302;42.624;23.334;2022-08-21T09:59:45;92763.88;;;23.66;100.00
12475;BME280;6302;42.624;23.334;2022-08-21T10:02:31;92762.69;;;23.72;100.00
12475;BME280;6302;42.624;23.334;2022-08-21T10:05:08;92762.19;;;23.79;100.00
12475;BME280;6302;42.624;23.334;2022-08-21T10:07:37;92762.69;;;23.83;100.00
12475;BME280;6302;42.624;23.334;2022-08-21T10:10:06;92758.25;;;23.86;100.00
12475;BME280;6302;42.624;23.334;2022-08-21T10:12:42;92763.72;;;23.97;100.00
12475;BME280;6302;42.624;23.334;2022-08-21T10:15:19;92759.81;;;24.09;100.00
12475;BME280;6302;42.624;23.334;2022-08-21T10:17:54;92754.91;;;24.19;100.00
12475;BME280;6302;42.624;23.334;2022-08-21T10:20:32;92756.63;;;24.33;100.00
12475;BME280;6302;42.624;23.334;2022-08-21T10:23:10;92743.34;;;24.46;100.00
12475;BME280;6302;42.624;23.334;2022-08-21T10:25:49;92744.56;;;24.56;100.00
12475;BME280;6302;42.624;23.334;2022-08-21T10:28:24;92748.25;;;24.64;100.00
12475;BME280;6302;42.624;23.334;2022-08-21T10:30:59;92738.16;;;24.76;100.00
12475;BME280;6302;42.624;23.334;2022-08-21T10:33:36;92742.28;;;25.04;100.00
12475;BME280;6302;42.624;23.334;2022-08-21T10:36:13;92734.84;;;25.21;100.00
12475;BME280;6302;42.624;23.334;2022-08-21T10:38:53;92731.88;;;25.31;100.00
12475;BME280;6302;42.624;23.334;2022-08-21T10:41:30;92733.56;;;25.39;100.00
12475;BME280;6302;42.624;23.334;2022-08-21T10:44:04;92736.50;;;25.52;100.00
12475;BME280;6302;42.624;23.334;2022-08-21T10:46:42;92732.22;;;25.68;100.00
12475;BME280;6302;42.624;23.334;2022-08-21T10:49:20;92735.28;;;25.94;100.00
12475;BME280;6302;42.624;23.334;2022-08-21T10:51:54;92724.44;;;25.94;100.00
12475;BME280;6302;42.624;23.334;2022-08-21T10:54:34;92720.44;;;26.01;100.00
12475;BME280;6302;42.624;23.334;2022-08-21T10:57:09;92719.97;;;25.97;100.00
12475;BME280;6302;42.624;23.334;2022-08-21T10:59:42;92723.09;;;26.06;100.00
12475;BME280;6302;42.624;23.334;2022-08-21T11:02:15;92716.16;;;26.16;100.00
12475;BME280;6302;42.624;23.334;2022-08-21T11:04:50;92713.97;;;26.09;100.00
12475;BME280;6302;42.624;23.334;2022-08-21T11:07:26;92710.00;;;25.75;100.00
12475;BME280;6302;42.624;23.334;2022-08-21T11:09:56;92708.69;;;25.87;100.00
12475;BME280;6302;42.624;23.334;2022-08-21T11:12:30;92699.50;;;25.90;100.00
12475;BME280;6302;42.624;23.334;2022-08-21T11:15:03;92695.91;;;25.76;100.00
12475;BME280;6302;42.624;23.334;2022-08-21T11:17:35;92686.59;;;25.66;100.00
12475;BME280;6302;42.624;23.334;2022-08-21T11:20:09;92688.63;;;25.55;100.00
12475;BME280;6302;42.624;23.334;2022-08-21T11:22:49;92692.88;;;25.39;100.00
12475;BME280;6302;42.624;23.334;2022-08-21T11:25:26;92686.69;;;25.44;100.00
12475;BME280;6302;42.624;23.334;2022-08-21T11:27:58;92690.91;;;25.40;100.00
12475;BME280;6302;42.624;23.334;2022-08-21T11:30:30;92688.19;;;25.45;100.00
12475;BME280;6302;42.624;23.334;2022-08-21T11:33:18;92691.28;;;25.66;100.00
12475;BME280;6302;42.624;23.334;2022-08-21T11:35:52;92691.34;;;25.96;100.00
12475;BME280;6302;42.624;23.334;2022-08-21T11:38:34;92693.22;;;26.12;100.00
12475;BME280;6302;42.624;23.334;2022-08-21T11:41:21;92684.34;;;26.11;100.00
12475;BME280;6302;42.624;23.334;2022-08-21T11:43:53;92685.81;;;26.12;100.00
12475;BME280;6302;42.624;23.334;2022-08-21T11:46:29;92688.56;;;26.07;100.00
12475;BME280;6302;42.624;23.334;2022-08-21T11:49:17;92681.63;;;26.06;100.00
12475;BME280;6302;42.624;23.334;2022-08-21T11:51:51;92684.38;;;26.00;100.00
12475;BME280;6302;42.624;23.334;2022-08-21T11:54:30;92687.66;;;25.93;100.00
12475;BME280;6302;42.624;23.334;2022-08-21T11:57:02;92681.47;;;25.93;100.00
12475;BME280;6302;42.624;23.334;2022-08-21T11:59:36;92682.50;;;25.90;100.00
12475;BME280;6302;42.624;23.334;2022-08-21T12:02:15;92664.47;;;25.92;100.00
12475;BME280;6302;42.624;23.334;2022-08-21T12:04:47;92665.94;;;25.93;100.00
12475;BME280;6302;42.624;23.334;2022-08-21T12:07:17;92666.47;;;25.86;100.00
12475;BME280;6302;42.624;23.334;2022-08-21T12:09:57;92655.63;;;25.86;100.00
12475;BME280;6302;42.624;23.334;2022-08-21T12:12:26;92654.13;;;25.85;100.00
12475;BME280;6302;42.624;23.334;2022-08-21T12:17:56;92669.97;;;25.81;100.00
12475;BME280;6302;42.624;23.334;2022-08-21T12:20:43;92667.06;;;25.68;100.00
12475;BME280;6302;42.624;23.334;2022-08-21T12:23:24;92678.69;;;25.63;100.00
12475;BME280;6302;42.624;23.334;2022-08-21T12:26:24;92674.78;;;25.58;100.00
12475;BME280;6302;42.624;23.334;2022-08-21T12:29:07;92676.81;;;25.52;100.00
12475;BME280;6302;42.624;23.334;2022-08-21T12:34:34;92667.25;;;25.35;100.00
12475;BME280;6302;42.624;23.334;2022-08-21T12:37:04;92663.09;;;25.28;100.00
12475;BME280;6302;42.624;23.334;2022-08-21T12:39:36;92665.31;;;25.30;100.00
12475;BME280;6302;42.624;23.334;2022-08-21T12:42:20;92658.47;;;25.17;100.00
12475;BME280;6302;42.624;23.334;2022-08-21T12:44:51;92661.63;;;25.21;100.00
12475;BME280;6302;42.624;23.334;2022-08-21T12:47:28;92622.06;;;24.96;100.00
12475;BME280;6302;42.624;23.334;2022-08-21T12:50:01;92664.84;;;25.20;100.00
12475;BME280;6302;42.624;23.334;2022-08-21T12:52:33;92664.63;;;25.18;100.00
12475;BME280;6302;42.624;23.334;2022-08-21T12:55:01;92659.44;;;25.14;100.00
12475;BME280;6302;42.624;23.334;2022-08-21T12:57:30;92656.50;;;25.12;100.00
12475;BME280;6302;42.624;23.334;2022-08-21T12:59:59;92645.16;;;25.08;100.00
12475;BME280;6302;42.624;23.334;2022-08-21T13:02:29;92638.28;;;25.07;100.00
12475;BME280;6302;42.624;23.334;2022-08-21T13:04:58;92633.41;;;25.00;100.00
12475;BME280;6302;42.624;23.334;2022-08-21T13:07:31;92638.06;;;25.00;100.00
12475;BME280;6302;42.624;23.334;2022-08-21T13:10:04;92646.19;;;25.00;100.00
12475;BME280;6302;42.624;23.334;2022-08-21T13:12:33;92651.13;;;25.01;100.00